Latest Coastal Weather Observations for Taree Airport

IDN60701

Issued at 4:45 am EDT Friday 31 October 2014 (issued every 10 minutes, with the page automatically refreshed every 10 minutes)

About coastal observations | Map of coastal stations | Coastal observations for NSW | Marine services | Other Formats
Station Details ID: 060141 Name: TAREE AIRPORT AWS Lat: -31.89 Lon: 152.51 Height: 8.0 m
Data from the previous 72 hours. | See also: Recent months at Taree Airport
Date/Time
EDT
Temp

°C
Wind Pressure Rain
since 9am
mm
Weather Cloud Vis
km
Sea
Height
m
Swell
Dir
 
Speed
knots
Gust
knots
hPa Trend Height
m
Period
s
Dir
31/04:30am 14.7 NW 0 0 1013.1 - 0.0 - - - - - - -
31/04:00am 14.5 CALM 0 0 1013.0 - 0.0 - - - - - - -
31/03:30am 14.3 CALM 0 0 1013.1 - 0.0 - - - - - - -
31/03:00am 14.8 NNW 4 5 1012.9 - 0.0 - - - - - - -
31/02:30am 15.8 CALM 0 0 1013.1 - 0.0 - - - - - - -
31/02:00am 16.3 CALM 0 0 1013.1 - 0.0 - - - - - - -
31/01:30am 16.4 W 1 4 1013.2 - 0.0 - - - - - - -
31/01:00am 17.6 WSW 1 5 1013.5 - 0.0 - - - - - - -
31/12:30am 17.9 CALM 0 0 1013.6 - 0.0 - - - - - - -
31/12:00am 18.2 NNE 1 3 1013.7 - 0.0 - - - - - - -
 
Date/Time
EDT
Temp

°C
Wind Pressure Rain
since 9am
mm
Weather Cloud Vis
km
Sea
Height
m
Swell
Dir
 
Speed
knots
Gust
knots
hPa Trend Height
m
Period
s
Dir
30/11:30pm 18.5 NE 5 6 1013.8 - 0.0 - - - - - - -
30/11:00pm 18.6 NE 7 8 1013.8 - 0.0 - - - - - - -
30/10:30pm 19.0 NE 6 9 1013.8 - 0.0 - - - - - - -
30/10:00pm 19.6 NE 5 7 1013.7 - 0.0 - - - - - - -
30/09:30pm 19.6 NNE 3 5 1013.7 - 0.0 - - - - - - -
30/09:00pm 19.5 ENE 6 7 1013.4 - 0.0 - - - - - - -
30/08:30pm 20.0 ENE 6 7 1013.1 - 0.0 - - - - - - -
30/08:00pm 20.8 ENE 4 7 1012.8 - 0.0 - - - - - - -
30/07:30pm 21.9 ENE 3 4 1012.5 - 0.0 - - - - - - -
30/07:00pm 23.1 E 5 6 1012.2 - 0.0 - - - - - - -
30/06:30pm 24.0 ESE 5 6 1012.1 - 0.0 - - - - - - -
30/06:00pm 24.7 E 6 8 1011.9 - 0.0 - - - - - - -
30/05:30pm 25.7 E 7 10 1011.7 - 0.0 - - - - - - -
30/05:00pm 25.6 E 8 10 1011.6 - 0.0 - - - - - - -
30/04:30pm 26.5 E 7 10 1011.4 - 0.0 - - - - - - -
30/04:00pm 26.8 E 9 14 1011.3 - 0.0 - - - - - - -
30/03:30pm 27.0 E 9 12 1011.4 - 0.0 - - - - - - -
30/03:00pm 28.2 E 9 13 1011.6 - 0.0 - - - - - - -
30/02:30pm 27.6 E 9 13 1012.1 - 0.0 - - - - - - -
30/02:00pm 27.6 E 9 13 1012.6 - 0.0 - - - - - - -
30/01:30pm 27.8 E 10 15 1012.7 - 0.0 - - - - - - -
30/01:00pm 27.5 SE 8 13 1013.0 - 0.0 - - - - - - -
30/12:30pm 27.6 ESE 6 9 1013.6 - 0.0 - - - - - - -
30/12:00pm 26.7 SE 6 9 1014.2 - 0.0 - - - - - - -
30/11:30am 26.7 SE 3 6 1014.6 - 0.0 - - - - - - -
30/11:00am 25.7 ENE 5 7 1014.9 - 0.0 - - - - - - -
30/10:30am 24.5 NE 4 5 1015.3 - 0.0 - - - - - - -
30/10:00am 23.2 N 1 5 1015.6 - 0.0 - - - - - - -
30/09:30am 21.4 NW 4 6 1015.8 - 0.0 - - - - - - -
30/09:00am 19.6 SW 5 7 1016.1 - 0.0 - - - - - - -
30/08:30am 18.5 WSW 5 7 1016.1 - 0.0 - - - - - - -
30/08:00am 17.5 WSW 4 6 1016.0 - 0.0 - - - - - - -
30/07:30am 15.5 W 5 5 1015.7 - 0.0 - - - - - - -
30/07:00am 14.2 CALM 0 0 1015.7 - 0.0 - - - - - - -
30/06:30am 13.0 CALM 0 0 1015.6 - 0.0 - - - - - - -
30/06:00am 12.7 CALM 0 0 1015.4 - 0.0 - - - - - - -
30/05:30am 12.9 CALM 0 0 1015.3 - 0.0 - - - - - - -
30/05:00am 13.4 W 3 4 1015.0 - 0.0 - - - - - - -
30/04:30am 13.9 CALM 0 0 1014.9 - 0.0 - - - - - - -
30/04:00am 14.0 CALM 0 0 1014.9 - 0.0 - - - - - - -
30/03:30am 14.3 CALM 0 0 1015.1 - 0.0 - - - - - - -
30/03:00am 15.2 CALM 0 1 1015.2 - 0.0 - - - - - - -
30/02:30am 14.7 NE 3 4 1015.3 - 0.0 - - - - - - -
30/02:00am 15.2 NE 5 6 1015.4 - 0.0 - - - - - - -
30/01:30am 15.3 NE 4 5 1015.6 - 0.0 - - - - - - -
30/01:00am 15.3 NE 4 5 1016.0 - 0.0 - - - - - - -
30/12:30am 15.2 CALM 0 3 1016.5 - 0.0 - - - - - - -
30/12:00am 14.5 NE 3 5 1016.8 - 0.0 - - - - - - -
 
Date/Time
EDT
Temp

°C
Wind Pressure Rain
since 9am
mm
Weather Cloud Vis
km
Sea
Height
m
Swell
Dir
 
Speed
knots
Gust
knots
hPa Trend Height
m
Period
s
Dir
29/11:30pm 15.1 NNE 1 4 1017.0 - 0.0 - - - - - - -
29/11:00pm 14.7 NE 2 4 1017.3 - 0.0 - - - - - - -
29/10:30pm 15.3 CALM 0 2 1017.3 - 0.0 - - - - - - -
29/10:00pm 14.8 CALM 0 0 1017.5 - 0.0 - - - - - - -
29/09:30pm 15.8 CALM 0 0 1017.5 - 0.0 - - - - - - -
29/09:00pm 16.6 NNE 1 4 1017.5 - 0.0 - - - - - - -
29/08:30pm 16.9 NE 4 5 1017.3 - 0.0 - - - - - - -
29/08:00pm 17.4 NE 3 4 1017.0 - 0.0 - - - - - - -
29/07:30pm 18.2 ENE 5 6 1016.8 - 0.0 - - - - - - -
29/07:00pm 19.3 ENE 9 13 1016.5 - 0.0 - - - - - - -
29/06:30pm 20.0 E 8 10 1016.2 - 0.0 - - - - - - -
29/06:00pm 20.6 E 9 13 1016.0 - 0.0 - - - - - - -
29/05:30pm 20.9 E 9 13 1015.8 - 0.0 - - - - - - -
29/05:00pm 21.5 E 9 14 1015.7 - 0.0 - - - - - - -
29/04:30pm 22.0 ENE 11 15 1015.7 - 0.0 - - - - - - -
29/04:00pm 22.2 E 10 15 1015.7 - 0.0 - - - - - - -
29/03:30pm 22.2 ESE 11 16 1015.7 - 0.0 - - - - - - -
29/03:00pm 22.3 ESE 10 15 1015.9 - 0.0 - - - - - - -
29/02:30pm 22.3 E 11 16 1016.0 - 0.0 - - - - - - -
29/02:00pm 22.5 SE 11 16 1016.1 - 0.0 - - - - - - -
29/01:30pm 22.6 E 12 16 1016.5 - 0.0 - - - - - - -
29/01:00pm 22.9 ESE 13 19 1016.4 - 0.0 - - - - - - -
29/12:30pm 23.6 SE 14 18 1016.5 - 0.0 - - - - - - -
29/12:00pm 23.2 SE 14 17 1016.8 - 0.0 - - - - - - -
29/11:00am 24.2 SSE 9 14 1016.9 - 0.0 - - - - - - -
29/10:30am 23.6 S 9 13 1017.1 - 0.0 - - - - - - -
29/10:00am 23.4 S 10 15 1017.1 - 0.0 - - - - - - -
29/09:30am 22.7 S 11 15 1016.9 - 0.0 - - - - - - -
29/09:00am 22.3 S 11 15 1016.8 - 0.0 - - - - - - -
29/08:30am 19.8 WNW 1 4 1016.8 - 0.0 - - - - - - -
29/08:00am 17.4 WSW 4 6 1016.6 - 0.0 - - - - - - -
29/07:30am 16.0 WSW 5 7 1016.3 - 0.0 - - - - - - -
29/07:00am 14.1 WSW 5 6 1016.1 - 0.0 - - - - - - -
29/06:30am 13.0 CALM 0 4 1015.5 - 0.0 - - - - - - -
29/06:00am 12.1 CALM 0 0 1015.1 - 0.0 - - - - - - -
29/05:30am 12.1 CALM 0 0 1014.6 - 0.0 - - - - - - -
29/05:00am 12.8 WNW 1 4 1014.3 - 0.0 - - - - - - -
29/04:30am 11.9 NNW 2 4 1013.9 - 0.0 - - - - - - -
29/04:00am 12.6 S 3 4 1013.7 - 0.0 - - - - - - -
29/03:30am 13.7 NW 1 5 1013.4 - 0.0 - - - - - - -
29/03:00am 14.3 W 4 5 1013.5 - 0.0 - - - - - - -
29/02:30am 14.2 SSW 2 4 1013.3 - 0.0 - - - - - - -
29/02:00am 14.6 W 4 5 1013.4 - 0.0 - - - - - - -
29/01:30am 14.8 W 4 5 1013.2 - 0.0 - - - - - - -
29/01:00am 15.1 NW 3 5 1013.1 - 0.0 - - - - - - -
29/12:30am 14.2 N 2 4 1013.1 - 0.0 - - - - - - -
29/12:00am 15.6 WNW 3 5 1012.9 - 0.0 - - - - - - -
 
Date/Time
EDT
Temp

°C
Wind Pressure Rain
since 9am
mm
Weather Cloud Vis
km
Sea
Height
m
Swell
Dir
 
Speed
knots
Gust
knots
hPa Trend Height
m
Period
s
Dir
28/11:30pm 14.9 CALM 0 0 1012.6 - 0.0 - - - - - - -
28/11:00pm 16.0 CALM 0 0 1012.3 - 0.0 - - - - - - -
28/10:30pm 16.3 CALM 0 0 1012.1 - 0.0 - - - - - - -
28/10:00pm 17.1 NW 2 4 1011.7 - 0.0 - - - - - - -
28/09:30pm 17.8 W 3 5 1011.6 - 0.0 - - - - - - -
28/09:00pm 17.9 CALM 0 0 1011.3 - 0.0 - - - - - - -
28/08:30pm 18.4 SE 1 5 1011.0 - 0.0 - - - - - - -
28/08:00pm 19.4 SE 4 4 1010.5 - 0.0 - - - - - - -
28/07:30pm 20.0 ENE 6 7 1010.0 - 0.0 - - - - - - -
28/07:00pm 21.1 E 8 14 1009.5 - 0.0 - - - - - - -
28/06:30pm 22.0 E 6 9 1009.2 - 0.0 - - - - - - -
28/06:00pm 22.9 E 8 12 1008.9 - 0.0 - - - - - - -
28/05:30pm 23.2 E 10 14 1008.7 - 0.0 - - - - - - -
28/05:00pm 23.6 E 10 14 1008.5 - 0.0 - - - - - - -
28/04:30pm 23.6 E 11 15 1008.5 - 0.0 - - - - - - -
28/04:00pm 24.5 E 10 14 1008.6 - 0.0 - - - - - - -
28/03:30pm 24.2 E 10 14 1008.8 - 0.0 - - - - - - -
28/03:00pm 24.7 ENE 9 13 1009.0 - 0.0 - - - - - - -
28/02:30pm 23.8 E 10 15 1009.3 - 0.0 - - - - - - -
28/02:00pm 23.7 E 10 16 1009.8 - 0.0 - - - - - - -
28/01:30pm 23.2 E 11 16 1010.2 - 0.0 - - - - - - -
28/01:00pm 24.1 E 13 17 1010.1 - 0.0 - - - - - - -
28/12:30pm 23.7 ESE 11 14 1010.7 - 0.0 - - - - - - -
28/12:00pm 23.8 E 13 16 1011.1 - 0.0 - - - - - - -
28/11:30am 24.3 E 6 10 1011.3 - 0.0 - - - - - - -
28/11:00am 23.9 E 5 8 1011.7 - 0.0 - - - - - - -
28/10:30am 23.2 E 3 9 1012.2 - 0.0 - - - - - - -
28/10:00am 22.4 NNW 5 9 1012.6 - 0.0 - - - - - - -
28/09:30am 21.9 NE 5 9 1012.9 - 0.0 - - - - - - -
28/09:00am 21.1 NE 4 8 1013.2 - 0.0 - - - - - - -
28/08:30am 20.6 NNE 5 8 1013.5 - 0.0 - - - - - - -
28/08:00am 19.6 N 4 6 1013.4 - 0.0 - - - - - - -
28/07:30am 18.8 NNW 4 6 1013.4 - 0.0 - - - - - - -
28/07:00am 17.7 NW 4 5 1013.3 - 0.0 - - - - - - -
28/06:30am 16.8 WNW 5 6 1013.0 - 0.0 - - - - - - -
28/06:00am 16.8 W 5 6 1012.5 - 0.0 - - - - - - -
28/05:30am 17.4 W 5 5 1012.0 - 0.0 - - - - - - -
28/05:00am 17.6 WSW 5 6 1011.8 - 0.0 - - - - - - -

Other Formats:

Comma delimited format used in spreadsheet applications
http://www.bom.gov.au/fwo/IDN60701/IDN60701.95784.axf

JavaScript Object Notation format (JSON) in row-major order
http://www.bom.gov.au/fwo/IDN60701/IDN60701.95784.json